sensor_id;sensor_type;location;lat;lon;timestamp;P1;durP1;ratioP1;P2;durP2;ratioP2
16975;SDS011;8604;48.148;-1.786;2023-08-06T00:01:56;11.67;;;3.47;;
16975;SDS011;8604;48.148;-1.786;2023-08-06T00:04:24;13.13;;;3.40;;
16975;SDS011;8604;48.148;-1.786;2023-08-06T00:06:53;12.77;;;3.27;;
16975;SDS011;8604;48.148;-1.786;2023-08-06T00:09:21;16.07;;;3.47;;
16975;SDS011;8604;48.148;-1.786;2023-08-06T00:11:52;14.53;;;3.60;;
16975;SDS011;8604;48.148;-1.786;2023-08-06T00:14:20;12.77;;;3.23;;
16975;SDS011;8604;48.148;-1.786;2023-08-06T00:16:50;16.13;;;3.67;;
16975;SDS011;8604;48.148;-1.786;2023-08-06T00:19:18;12.53;;;3.37;;
16975;SDS011;8604;48.148;-1.786;2023-08-06T00:21:47;13.50;;;3.33;;
16975;SDS011;8604;48.148;-1.786;2023-08-06T00:24:15;9.53;;;2.80;;
16975;SDS011;8604;48.148;-1.786;2023-08-06T00:26:44;11.63;;;3.13;;
16975;SDS011;8604;48.148;-1.786;2023-08-06T00:29:12;12.60;;;3.03;;
16975;SDS011;8604;48.148;-1.786;2023-08-06T00:31:41;21.60;;;3.33;;
16975;SDS011;8604;48.148;-1.786;2023-08-06T00:34:11;11.53;;;3.30;;
16975;SDS011;8604;48.148;-1.786;2023-08-06T00:36:39;10.27;;;2.90;;
16975;SDS011;8604;48.148;-1.786;2023-08-06T00:39:08;13.17;;;3.40;;
16975;SDS011;8604;48.148;-1.786;2023-08-06T00:41:36;12.77;;;3.30;;
16975;SDS011;8604;48.148;-1.786;2023-08-06T00:44:04;11.87;;;3.07;;
16975;SDS011;8604;48.148;-1.786;2023-08-06T00:46:33;11.77;;;3.10;;
16975;SDS011;8604;48.148;-1.786;2023-08-06T00:49:01;14.50;;;3.23;;
16975;SDS011;8604;48.148;-1.786;2023-08-06T00:51:31;10.17;;;3.00;;
16975;SDS011;8604;48.148;-1.786;2023-08-06T00:54:02;10.43;;;2.90;;
16975;SDS011;8604;48.148;-1.786;2023-08-06T00:56:30;10.67;;;3.03;;
16975;SDS011;8604;48.148;-1.786;2023-08-06T00:59:00;12.53;;;2.90;;
16975;SDS011;8604;48.148;-1.786;2023-08-06T01:01:29;14.57;;;3.30;;
16975;SDS011;8604;48.148;-1.786;2023-08-06T01:03:57;13.40;;;3.17;;
16975;SDS011;8604;48.148;-1.786;2023-08-06T01:06:29;9.83;;;2.60;;
16975;SDS011;8604;48.148;-1.786;2023-08-06T01:09:15;13.40;;;3.23;;
16975;SDS011;8604;48.148;-1.786;2023-08-06T01:11:59;13.27;;;3.10;;
16975;SDS011;8604;48.148;-1.786;2023-08-06T01:14:36;11.40;;;2.87;;
16975;SDS011;8604;48.148;-1.786;2023-08-06T01:17:11;9.90;;;2.93;;
16975;SDS011;8604;48.148;-1.786;2023-08-06T01:19:41;11.87;;;2.73;;
16975;SDS011;8604;48.148;-1.786;2023-08-06T01:22:11;12.60;;;2.83;;
16975;SDS011;8604;48.148;-1.786;2023-08-06T01:24:40;14.37;;;3.20;;
16975;SDS011;8604;48.148;-1.786;2023-08-06T01:27:14;11.63;;;2.83;;
16975;SDS011;8604;48.148;-1.786;2023-08-06T01:29:53;14.13;;;2.70;;
16975;SDS011;8604;48.148;-1.786;2023-08-06T01:32:27;10.90;;;2.77;;
16975;SDS011;8604;48.148;-1.786;2023-08-06T01:34:59;10.27;;;2.70;;
16975;SDS011;8604;48.148;-1.786;2023-08-06T01:37:31;13.47;;;2.93;;
16975;SDS011;8604;48.148;-1.786;2023-08-06T01:40:05;10.07;;;2.57;;
16975;SDS011;8604;48.148;-1.786;2023-08-06T01:42:34;11.33;;;2.73;;
16975;SDS011;8604;48.148;-1.786;2023-08-06T01:45:03;11.97;;;2.97;;
16975;SDS011;8604;48.148;-1.786;2023-08-06T01:47:31;13.07;;;2.90;;
16975;SDS011;8604;48.148;-1.786;2023-08-06T01:50:00;9.70;;;2.63;;
16975;SDS011;8604;48.148;-1.786;2023-08-06T01:52:28;11.57;;;2.90;;
16975;SDS011;8604;48.148;-1.786;2023-08-06T01:54:59;12.13;;;2.70;;
16975;SDS011;8604;48.148;-1.786;2023-08-06T01:57:27;9.10;;;2.53;;
16975;SDS011;8604;48.148;-1.786;2023-08-06T01:59:56;11.13;;;2.37;;
16975;SDS011;8604;48.148;-1.786;2023-08-06T02:02:24;10.63;;;2.60;;
16975;SDS011;8604;48.148;-1.786;2023-08-06T02:04:53;11.37;;;2.50;;
16975;SDS011;8604;48.148;-1.786;2023-08-06T02:07:21;11.40;;;2.47;;
16975;SDS011;8604;48.148;-1.786;2023-08-06T02:09:51;12.60;;;2.60;;
16975;SDS011;8604;48.148;-1.786;2023-08-06T02:12:23;11.50;;;2.70;;
16975;SDS011;8604;48.148;-1.786;2023-08-06T02:14:52;13.30;;;2.70;;
16975;SDS011;8604;48.148;-1.786;2023-08-06T02:17:20;16.13;;;3.43;;
16975;SDS011;8604;48.148;-1.786;2023-08-06T02:19:48;8.50;;;2.40;;
16975;SDS011;8604;48.148;-1.786;2023-08-06T02:22:17;12.43;;;2.70;;
16975;SDS011;8604;48.148;-1.786;2023-08-06T02:24:45;13.70;;;2.67;;
16975;SDS011;8604;48.148;-1.786;2023-08-06T02:27:13;9.93;;;2.70;;
16975;SDS011;8604;48.148;-1.786;2023-08-06T02:29:43;10.40;;;2.57;;
16975;SDS011;8604;48.148;-1.786;2023-08-06T02:32:12;12.37;;;2.50;;
16975;SDS011;8604;48.148;-1.786;2023-08-06T02:34:40;10.30;;;2.60;;
16975;SDS011;8604;48.148;-1.786;2023-08-06T02:37:08;11.10;;;2.87;;
16975;SDS011;8604;48.148;-1.786;2023-08-06T02:39:38;10.17;;;2.50;;
16975;SDS011;8604;48.148;-1.786;2023-08-06T02:42:07;10.53;;;2.63;;
16975;SDS011;8604;48.148;-1.786;2023-08-06T02:44:35;10.70;;;2.80;;
16975;SDS011;8604;48.148;-1.786;2023-08-06T02:47:05;10.43;;;2.50;;
16975;SDS011;8604;48.148;-1.786;2023-08-06T02:49:34;10.63;;;2.40;;
16975;SDS011;8604;48.148;-1.786;2023-08-06T02:52:03;9.30;;;2.33;;
16975;SDS011;8604;48.148;-1.786;2023-08-06T02:54:31;9.97;;;2.30;;
16975;SDS011;8604;48.148;-1.786;2023-08-06T02:57:00;10.13;;;2.30;;
16975;SDS011;8604;48.148;-1.786;2023-08-06T02:59:31;10.63;;;2.60;;
16975;SDS011;8604;48.148;-1.786;2023-08-06T03:02:15;10.23;;;2.50;;
16975;SDS011;8604;48.148;-1.786;2023-08-06T03:04:57;8.23;;;2.33;;
16975;SDS011;8604;48.148;-1.786;2023-08-06T03:07:30;11.07;;;2.43;;
16975;SDS011;8604;48.148;-1.786;2023-08-06T03:10:06;8.30;;;2.50;;
16975;SDS011;8604;48.148;-1.786;2023-08-06T03:12:35;9.80;;;2.50;;
16975;SDS011;8604;48.148;-1.786;2023-08-06T03:15:05;14.23;;;2.80;;
16975;SDS011;8604;48.148;-1.786;2023-08-06T03:17:35;9.80;;;2.60;;
16975;SDS011;8604;48.148;-1.786;2023-08-06T03:20:05;12.13;;;2.63;;
16975;SDS011;8604;48.148;-1.786;2023-08-06T03:22:35;13.30;;;2.80;;
16975;SDS011;8604;48.148;-1.786;2023-08-06T03:25:05;12.07;;;3.13;;
16975;SDS011;8604;48.148;-1.786;2023-08-06T03:27:35;10.83;;;2.90;;
16975;SDS011;8604;48.148;-1.786;2023-08-06T03:30:04;10.83;;;2.67;;
16975;SDS011;8604;48.148;-1.786;2023-08-06T03:32:33;7.60;;;2.40;;
16975;SDS011;8604;48.148;-1.786;2023-08-06T03:35:04;7.60;;;2.30;;
16975;SDS011;8604;48.148;-1.786;2023-08-06T03:37:33;11.43;;;2.60;;
16975;SDS011;8604;48.148;-1.786;2023-08-06T03:40:01;10.67;;;2.30;;
16975;SDS011;8604;48.148;-1.786;2023-08-06T03:42:32;10.27;;;2.47;;
16975;SDS011;8604;48.148;-1.786;2023-08-06T03:45:01;9.07;;;2.30;;
16975;SDS011;8604;48.148;-1.786;2023-08-06T03:47:30;10.60;;;2.47;;
16975;SDS011;8604;48.148;-1.786;2023-08-06T03:50:00;11.13;;;2.50;;
16975;SDS011;8604;48.148;-1.786;2023-08-06T03:52:29;10.50;;;2.83;;
16975;SDS011;8604;48.148;-1.786;2023-08-06T03:54:57;12.90;;;2.57;;
16975;SDS011;8604;48.148;-1.786;2023-08-06T03:57:26;9.87;;;2.40;;
16975;SDS011;8604;48.148;-1.786;2023-08-06T03:59:54;13.00;;;2.80;;
16975;SDS011;8604;48.148;-1.786;2023-08-06T04:02:25;10.63;;;2.90;;
16975;SDS011;8604;48.148;-1.786;2023-08-06T04:04:54;10.30;;;2.70;;
16975;SDS011;8604;48.148;-1.786;2023-08-06T04:07:23;10.00;;;2.50;;
16975;SDS011;8604;48.148;-1.786;2023-08-06T04:09:54;10.53;;;2.70;;
16975;SDS011;8604;48.148;-1.786;2023-08-06T04:12:24;10.70;;;2.80;;
16975;SDS011;8604;48.148;-1.786;2023-08-06T04:14:53;12.83;;;2.93;;
16975;SDS011;8604;48.148;-1.786;2023-08-06T04:17:22;12.13;;;2.73;;
16975;SDS011;8604;48.148;-1.786;2023-08-06T04:19:51;12.77;;;2.83;;
16975;SDS011;8604;48.148;-1.786;2023-08-06T04:22:21;10.03;;;2.50;;
16975;SDS011;8604;48.148;-1.786;2023-08-06T04:24:51;12.13;;;2.57;;
16975;SDS011;8604;48.148;-1.786;2023-08-06T04:27:20;15.80;;;2.90;;
16975;SDS011;8604;48.148;-1.786;2023-08-06T04:29:49;10.17;;;2.70;;
16975;SDS011;8604;48.148;-1.786;2023-08-06T04:32:17;8.83;;;2.57;;
16975;SDS011;8604;48.148;-1.786;2023-08-06T04:34:51;8.17;;;2.67;;
16975;SDS011;8604;48.148;-1.786;2023-08-06T04:37:19;9.23;;;2.33;;
16975;SDS011;8604;48.148;-1.786;2023-08-06T04:39:49;10.33;;;2.20;;
16975;SDS011;8604;48.148;-1.786;2023-08-06T04:42:18;12.63;;;2.77;;
16975;SDS011;8604;48.148;-1.786;2023-08-06T04:44:47;11.87;;;2.67;;
16975;SDS011;8604;48.148;-1.786;2023-08-06T04:47:15;11.53;;;2.60;;
16975;SDS011;8604;48.148;-1.786;2023-08-06T04:49:44;11.07;;;2.90;;
16975;SDS011;8604;48.148;-1.786;2023-08-06T04:52:12;11.33;;;2.50;;
16975;SDS011;8604;48.148;-1.786;2023-08-06T04:54:40;11.47;;;2.67;;
16975;SDS011;8604;48.148;-1.786;2023-08-06T04:57:10;14.73;;;2.60;;
16975;SDS011;8604;48.148;-1.786;2023-08-06T04:59:38;14.20;;;2.90;;
16975;SDS011;8604;48.148;-1.786;2023-08-06T05:02:07;12.00;;;2.70;;
16975;SDS011;8604;48.148;-1.786;2023-08-06T05:04:35;10.83;;;2.57;;
16975;SDS011;8604;48.148;-1.786;2023-08-06T05:07:04;11.63;;;2.70;;
16975;SDS011;8604;48.148;-1.786;2023-08-06T05:09:33;11.23;;;2.97;;
16975;SDS011;8604;48.148;-1.786;2023-08-06T05:12:01;12.60;;;3.00;;
16975;SDS011;8604;48.148;-1.786;2023-08-06T05:14:33;11.50;;;2.83;;
16975;SDS011;8604;48.148;-1.786;2023-08-06T05:17:01;10.23;;;2.93;;
16975;SDS011;8604;48.148;-1.786;2023-08-06T05:19:31;9.83;;;2.80;;
16975;SDS011;8604;48.148;-1.786;2023-08-06T05:21:59;10.67;;;2.80;;
16975;SDS011;8604;48.148;-1.786;2023-08-06T05:24:28;9.97;;;2.50;;
16975;SDS011;8604;48.148;-1.786;2023-08-06T05:26:57;10.13;;;2.60;;
16975;SDS011;8604;48.148;-1.786;2023-08-06T05:29:25;10.03;;;2.80;;
16975;SDS011;8604;48.148;-1.786;2023-08-06T05:31:56;8.53;;;2.60;;
16975;SDS011;8604;48.148;-1.786;2023-08-06T05:34:27;12.27;;;2.80;;
16975;SDS011;8604;48.148;-1.786;2023-08-06T05:36:56;10.10;;;2.73;;
16975;SDS011;8604;48.148;-1.786;2023-08-06T05:39:24;9.43;;;2.70;;
16975;SDS011;8604;48.148;-1.786;2023-08-06T05:41:53;10.63;;;2.70;;
16975;SDS011;8604;48.148;-1.786;2023-08-06T05:44:23;11.13;;;2.90;;
16975;SDS011;8604;48.148;-1.786;2023-08-06T05:46:51;9.77;;;2.70;;
16975;SDS011;8604;48.148;-1.786;2023-08-06T05:49:21;10.47;;;2.93;;
16975;SDS011;8604;48.148;-1.786;2023-08-06T05:51:50;12.70;;;3.40;;
16975;SDS011;8604;48.148;-1.786;2023-08-06T05:54:32;11.67;;;2.90;;
16975;SDS011;8604;48.148;-1.786;2023-08-06T05:57:12;13.40;;;3.10;;
16975;SDS011;8604;48.148;-1.786;2023-08-06T06:00:10;12.53;;;2.87;;
16975;SDS011;8604;48.148;-1.786;2023-08-06T06:03:11;15.57;;;3.40;;
16975;SDS011;8604;48.148;-1.786;2023-08-06T06:05:55;11.87;;;2.90;;
16975;SDS011;8604;48.148;-1.786;2023-08-06T06:08:36;18.17;;;3.80;;
16975;SDS011;8604;48.148;-1.786;2023-08-06T06:11:17;16.33;;;3.37;;
16975;SDS011;8604;48.148;-1.786;2023-08-06T06:14:31;12.43;;;2.90;;
16975;SDS011;8604;48.148;-1.786;2023-08-06T06:17:26;11.17;;;2.77;;
16975;SDS011;8604;48.148;-1.786;2023-08-06T06:20:08;15.93;;;3.20;;
16975;SDS011;8604;48.148;-1.786;2023-08-06T06:25:47;16.40;;;3.10;;
16975;SDS011;8604;48.148;-1.786;2023-08-06T06:28:59;16.43;;;3.27;;
16975;SDS011;8604;48.148;-1.786;2023-08-06T06:31:45;12.97;;;3.23;;
16975;SDS011;8604;48.148;-1.786;2023-08-06T06:34:51;11.37;;;2.87;;
16975;SDS011;8604;48.148;-1.786;2023-08-06T06:37:41;13.03;;;3.10;;
16975;SDS011;8604;48.148;-1.786;2023-08-06T06:40:21;12.63;;;2.43;;
16975;SDS011;8604;48.148;-1.786;2023-08-06T06:43:06;14.40;;;3.10;;
16975;SDS011;8604;48.148;-1.786;2023-08-06T06:45:53;13.10;;;3.37;;
16975;SDS011;8604;48.148;-1.786;2023-08-06T06:48:47;19.23;;;3.10;;
16975;SDS011;8604;48.148;-1.786;2023-08-06T06:51:16;13.93;;;2.97;;
16975;SDS011;8604;48.148;-1.786;2023-08-06T06:53:44;13.97;;;3.13;;
16975;SDS011;8604;48.148;-1.786;2023-08-06T06:56:14;15.17;;;3.37;;
16975;SDS011;8604;48.148;-1.786;2023-08-06T06:58:42;13.67;;;3.27;;
16975;SDS011;8604;48.148;-1.786;2023-08-06T07:01:11;14.93;;;3.13;;
16975;SDS011;8604;48.148;-1.786;2023-08-06T07:03:39;13.93;;;3.17;;
16975;SDS011;8604;48.148;-1.786;2023-08-06T07:06:08;13.70;;;3.00;;
16975;SDS011;8604;48.148;-1.786;2023-08-06T07:08:37;15.80;;;3.23;;
16975;SDS011;8604;48.148;-1.786;2023-08-06T07:11:06;15.83;;;3.60;;
16975;SDS011;8604;48.148;-1.786;2023-08-06T07:13:36;14.73;;;3.73;;
16975;SDS011;8604;48.148;-1.786;2023-08-06T07:16:04;11.63;;;2.83;;
16975;SDS011;8604;48.148;-1.786;2023-08-06T07:18:37;15.43;;;3.60;;
16975;SDS011;8604;48.148;-1.786;2023-08-06T07:21:05;13.07;;;3.27;;
16975;SDS011;8604;48.148;-1.786;2023-08-06T07:23:34;12.00;;;2.93;;
16975;SDS011;8604;48.148;-1.786;2023-08-06T07:26:02;11.43;;;3.00;;
16975;SDS011;8604;48.148;-1.786;2023-08-06T07:28:31;11.90;;;3.40;;
16975;SDS011;8604;48.148;-1.786;2023-08-06T07:31:02;14.03;;;3.37;;
16975;SDS011;8604;48.148;-1.786;2023-08-06T07:33:34;11.93;;;2.90;;
16975;SDS011;8604;48.148;-1.786;2023-08-06T07:36:10;11.80;;;3.23;;
16975;SDS011;8604;48.148;-1.786;2023-08-06T07:38:40;11.30;;;2.93;;
16975;SDS011;8604;48.148;-1.786;2023-08-06T07:41:09;14.90;;;3.07;;
16975;SDS011;8604;48.148;-1.786;2023-08-06T07:43:37;11.13;;;2.83;;
16975;SDS011;8604;48.148;-1.786;2023-08-06T07:46:07;11.10;;;3.10;;
16975;SDS011;8604;48.148;-1.786;2023-08-06T07:48:36;10.50;;;3.20;;
16975;SDS011;8604;48.148;-1.786;2023-08-06T07:51:05;13.90;;;3.30;;
16975;SDS011;8604;48.148;-1.786;2023-08-06T07:53:33;13.83;;;3.10;;
16975;SDS011;8604;48.148;-1.786;2023-08-06T07:56:02;11.10;;;3.00;;
16975;SDS011;8604;48.148;-1.786;2023-08-06T07:58:33;12.63;;;3.33;;
16975;SDS011;8604;48.148;-1.786;2023-08-06T08:01:14;8.97;;;2.70;;
16975;SDS011;8604;48.148;-1.786;2023-08-06T08:03:45;9.80;;;3.07;;
16975;SDS011;8604;48.148;-1.786;2023-08-06T08:06:25;9.57;;;2.57;;
16975;SDS011;8604;48.148;-1.786;2023-08-06T08:08:58;8.90;;;2.70;;
16975;SDS011;8604;48.148;-1.786;2023-08-06T08:11:27;9.87;;;2.50;;
16975;SDS011;8604;48.148;-1.786;2023-08-06T08:13:55;8.23;;;2.37;;
16975;SDS011;8604;48.148;-1.786;2023-08-06T08:16:25;8.67;;;2.77;;
16975;SDS011;8604;48.148;-1.786;2023-08-06T08:18:54;10.10;;;2.63;;
16975;SDS011;8604;48.148;-1.786;2023-08-06T08:21:23;8.90;;;2.67;;
16975;SDS011;8604;48.148;-1.786;2023-08-06T08:23:52;8.60;;;2.40;;
16975;SDS011;8604;48.148;-1.786;2023-08-06T08:26:20;6.97;;;2.33;;
16975;SDS011;8604;48.148;-1.786;2023-08-06T08:28:50;8.60;;;2.40;;
16975;SDS011;8604;48.148;-1.786;2023-08-06T08:31:18;9.30;;;2.70;;
16975;SDS011;8604;48.148;-1.786;2023-08-06T08:33:48;14.77;;;2.93;;
16975;SDS011;8604;48.148;-1.786;2023-08-06T08:36:20;7.67;;;2.60;;
16975;SDS011;8604;48.148;-1.786;2023-08-06T08:38:49;12.23;;;2.90;;
16975;SDS011;8604;48.148;-1.786;2023-08-06T08:41:20;10.07;;;2.50;;
16975;SDS011;8604;48.148;-1.786;2023-08-06T08:43:49;8.60;;;2.33;;
16975;SDS011;8604;48.148;-1.786;2023-08-06T08:46:33;9.93;;;2.53;;
16975;SDS011;8604;48.148;-1.786;2023-08-06T08:54:55;8.18;;;2.35;;
16975;SDS011;8604;48.148;-1.786;2023-08-06T08:57:30;8.87;;;2.50;;
16975;SDS011;8604;48.148;-1.786;2023-08-06T08:59:59;6.90;;;2.00;;
16975;SDS011;8604;48.148;-1.786;2023-08-06T09:02:28;8.60;;;2.10;;
16975;SDS011;8604;48.148;-1.786;2023-08-06T09:04:59;5.87;;;2.27;;
16975;SDS011;8604;48.148;-1.786;2023-08-06T09:07:31;7.57;;;2.13;;
16975;SDS011;8604;48.148;-1.786;2023-08-06T09:10:04;8.37;;;2.30;;
16975;SDS011;8604;48.148;-1.786;2023-08-06T09:12:37;7.63;;;2.13;;
16975;SDS011;8604;48.148;-1.786;2023-08-06T09:15:06;8.50;;;2.10;;
16975;SDS011;8604;48.148;-1.786;2023-08-06T09:17:35;6.33;;;1.90;;
16975;SDS011;8604;48.148;-1.786;2023-08-06T09:20:11;8.33;;;2.03;;
16975;SDS011;8604;48.148;-1.786;2023-08-06T09:22:40;5.60;;;1.75;;
16975;SDS011;8604;48.148;-1.786;2023-08-06T09:25:10;5.93;;;1.80;;
16975;SDS011;8604;48.148;-1.786;2023-08-06T09:27:40;8.20;;;2.23;;
16975;SDS011;8604;48.148;-1.786;2023-08-06T09:30:13;9.83;;;2.30;;
16975;SDS011;8604;48.148;-1.786;2023-08-06T09:32:57;8.07;;;2.57;;
16975;SDS011;8604;48.148;-1.786;2023-08-06T09:35:28;8.90;;;2.03;;
16975;SDS011;8604;48.148;-1.786;2023-08-06T09:38:03;5.40;;;1.93;;
16975;SDS011;8604;48.148;-1.786;2023-08-06T09:40:36;5.53;;;1.90;;
16975;SDS011;8604;48.148;-1.786;2023-08-06T09:43:05;7.23;;;2.13;;
16975;SDS011;8604;48.148;-1.786;2023-08-06T09:45:34;4.10;;;1.50;;
16975;SDS011;8604;48.148;-1.786;2023-08-06T09:48:04;6.73;;;1.93;;
16975;SDS011;8604;48.148;-1.786;2023-08-06T09:50:34;6.53;;;1.70;;
16975;SDS011;8604;48.148;-1.786;2023-08-06T09:53:05;6.67;;;2.00;;
16975;SDS011;8604;48.148;-1.786;2023-08-06T09:55:55;5.63;;;1.63;;
16975;SDS011;8604;48.148;-1.786;2023-08-06T09:58:24;4.27;;;1.40;;
16975;SDS011;8604;48.148;-1.786;2023-08-06T10:00:53;5.60;;;1.50;;
16975;SDS011;8604;48.148;-1.786;2023-08-06T10:03:22;4.63;;;1.50;;
16975;SDS011;8604;48.148;-1.786;2023-08-06T10:06:13;3.63;;;1.50;;
16975;SDS011;8604;48.148;-1.786;2023-08-06T10:08:43;5.53;;;1.77;;
16975;SDS011;8604;48.148;-1.786;2023-08-06T10:11:15;4.47;;;1.80;;
16975;SDS011;8604;48.148;-1.786;2023-08-06T10:14:11;5.55;;;1.65;;
16975;SDS011;8604;48.148;-1.786;2023-08-06T10:16:49;5.75;;;1.35;;
16975;SDS011;8604;48.148;-1.786;2023-08-06T10:19:21;4.85;;;1.77;;
16975;SDS011;8604;48.148;-1.786;2023-08-06T10:22:24;4.05;;;1.60;;
16975;SDS011;8604;48.148;-1.786;2023-08-06T10:24:58;5.10;;;1.48;;
16975;SDS011;8604;48.148;-1.786;2023-08-06T10:27:33;4.28;;;1.38;;
16975;SDS011;8604;48.148;-1.786;2023-08-06T10:32:59;5.40;;;1.60;;
16975;SDS011;8604;48.148;-1.786;2023-08-06T10:35:29;6.13;;;1.60;;
16975;SDS011;8604;48.148;-1.786;2023-08-06T10:37:59;6.23;;;1.60;;
16975;SDS011;8604;48.148;-1.786;2023-08-06T10:40:31;5.50;;;1.70;;
16975;SDS011;8604;48.148;-1.786;2023-08-06T10:43:03;5.30;;;1.50;;
16975;SDS011;8604;48.148;-1.786;2023-08-06T10:45:34;5.67;;;1.57;;
16975;SDS011;8604;48.148;-1.786;2023-08-06T10:48:03;5.27;;;1.57;;
16975;SDS011;8604;48.148;-1.786;2023-08-06T10:50:32;7.20;;;1.77;;
16975;SDS011;8604;48.148;-1.786;2023-08-06T10:53:03;5.90;;;1.70;;
16975;SDS011;8604;48.148;-1.786;2023-08-06T10:55:33;7.33;;;1.80;;
16975;SDS011;8604;48.148;-1.786;2023-08-06T10:58:06;6.60;;;1.60;;
16975;SDS011;8604;48.148;-1.786;2023-08-06T11:00:34;5.07;;;1.60;;
16975;SDS011;8604;48.148;-1.786;2023-08-06T11:03:03;4.53;;;1.70;;
16975;SDS011;8604;48.148;-1.786;2023-08-06T11:05:31;4.85;;;1.60;;
16975;SDS011;8604;48.148;-1.786;2023-08-06T11:08:00;4.90;;;1.70;;
16975;SDS011;8604;48.148;-1.786;2023-08-06T11:10:28;4.43;;;1.52;;
16975;SDS011;8604;48.148;-1.786;2023-08-06T11:13:00;4.60;;;1.63;;
16975;SDS011;8604;48.148;-1.786;2023-08-06T11:15:30;4.60;;;1.60;;
16975;SDS011;8604;48.148;-1.786;2023-08-06T11:17:59;3.75;;;1.45;;
16975;SDS011;8604;48.148;-1.786;2023-08-06T11:20:29;5.20;;;1.70;;
16975;SDS011;8604;48.148;-1.786;2023-08-06T11:22:57;3.55;;;1.40;;
16975;SDS011;8604;48.148;-1.786;2023-08-06T11:25:26;5.07;;;2.00;;
16975;SDS011;8604;48.148;-1.786;2023-08-06T11:27:55;5.47;;;2.70;;
16975;SDS011;8604;48.148;-1.786;2023-08-06T11:30:27;5.37;;;1.90;;
16975;SDS011;8604;48.148;-1.786;2023-08-06T11:32:57;3.63;;;1.40;;
16975;SDS011;8604;48.148;-1.786;2023-08-06T11:35:25;8.00;;;1.80;;
16975;SDS011;8604;48.148;-1.786;2023-08-06T11:37:53;5.07;;;1.77;;
16975;SDS011;8604;48.148;-1.786;2023-08-06T11:40:25;3.70;;;1.30;;
16975;SDS011;8604;48.148;-1.786;2023-08-06T11:42:53;3.17;;;1.47;;
16975;SDS011;8604;48.148;-1.786;2023-08-06T11:45:25;8.17;;;1.87;;
16975;SDS011;8604;48.148;-1.786;2023-08-06T11:47:53;4.83;;;1.47;;
16975;SDS011;8604;48.148;-1.786;2023-08-06T11:50:23;5.43;;;1.70;;
16975;SDS011;8604;48.148;-1.786;2023-08-06T11:52:52;3.57;;;1.40;;
16975;SDS011;8604;48.148;-1.786;2023-08-06T11:55:24;8.37;;;5.53;;
16975;SDS011;8604;48.148;-1.786;2023-08-06T11:57:54;5.33;;;2.30;;
16975;SDS011;8604;48.148;-1.786;2023-08-06T12:00:23;5.67;;;2.70;;
16975;SDS011;8604;48.148;-1.786;2023-08-06T12:02:57;4.27;;;1.37;;
16975;SDS011;8604;48.148;-1.786;2023-08-06T12:05:30;4.27;;;1.43;;
16975;SDS011;8604;48.148;-1.786;2023-08-06T12:08:00;5.00;;;1.40;;
16975;SDS011;8604;48.148;-1.786;2023-08-06T12:10:30;4.93;;;1.30;;
16975;SDS011;8604;48.148;-1.786;2023-08-06T12:12:59;5.05;;;1.48;;
16975;SDS011;8604;48.148;-1.786;2023-08-06T12:15:29;4.27;;;1.17;;
16975;SDS011;8604;48.148;-1.786;2023-08-06T12:17:59;6.20;;;1.47;;
16975;SDS011;8604;48.148;-1.786;2023-08-06T12:20:27;4.30;;;1.20;;
16975;SDS011;8604;48.148;-1.786;2023-08-06T12:22:57;3.87;;;1.20;;
16975;SDS011;8604;48.148;-1.786;2023-08-06T12:25:26;2.77;;;1.30;;
16975;SDS011;8604;48.148;-1.786;2023-08-06T12:27:55;4.17;;;1.40;;
16975;SDS011;8604;48.148;-1.786;2023-08-06T12:30:24;3.97;;;1.50;;
16975;SDS011;8604;48.148;-1.786;2023-08-06T12:32:53;6.20;;;1.60;;
16975;SDS011;8604;48.148;-1.786;2023-08-06T12:35:22;3.97;;;1.10;;
16975;SDS011;8604;48.148;-1.786;2023-08-06T12:37:53;4.93;;;1.57;;
16975;SDS011;8604;48.148;-1.786;2023-08-06T12:40:24;3.57;;;1.17;;
16975;SDS011;8604;48.148;-1.786;2023-08-06T12:43:04;4.17;;;1.20;;
16975;SDS011;8604;48.148;-1.786;2023-08-06T12:45:32;3.20;;;1.17;;
16975;SDS011;8604;48.148;-1.786;2023-08-06T12:48:01;3.67;;;1.40;;
16975;SDS011;8604;48.148;-1.786;2023-08-06T12:50:29;2.40;;;1.10;;
16975;SDS011;8604;48.148;-1.786;2023-08-06T12:53:00;3.87;;;1.30;;
16975;SDS011;8604;48.148;-1.786;2023-08-06T12:55:31;3.43;;;1.30;;
16975;SDS011;8604;48.148;-1.786;2023-08-06T12:57:59;4.63;;;1.30;;
16975;SDS011;8604;48.148;-1.786;2023-08-06T13:00:28;3.93;;;1.40;;
16975;SDS011;8604;48.148;-1.786;2023-08-06T13:02:56;5.17;;;1.60;;
16975;SDS011;8604;48.148;-1.786;2023-08-06T13:05:25;6.70;;;1.53;;
16975;SDS011;8604;48.148;-1.786;2023-08-06T13:07:53;5.70;;;1.40;;
16975;SDS011;8604;48.148;-1.786;2023-08-06T13:10:23;4.77;;;1.47;;
16975;SDS011;8604;48.148;-1.786;2023-08-06T13:12:52;4.90;;;1.43;;
16975;SDS011;8604;48.148;-1.786;2023-08-06T13:15:20;4.17;;;1.50;;
16975;SDS011;8604;48.148;-1.786;2023-08-06T13:17:49;5.97;;;1.63;;
16975;SDS011;8604;48.148;-1.786;2023-08-06T13:20:18;4.40;;;1.40;;
16975;SDS011;8604;48.148;-1.786;2023-08-06T13:22:47;6.00;;;1.67;;
16975;SDS011;8604;48.148;-1.786;2023-08-06T13:25:17;5.47;;;1.30;;
16975;SDS011;8604;48.148;-1.786;2023-08-06T13:27:47;4.67;;;1.60;;
16975;SDS011;8604;48.148;-1.786;2023-08-06T13:30:16;5.47;;;1.47;;
16975;SDS011;8604;48.148;-1.786;2023-08-06T13:32:45;3.83;;;1.40;;
16975;SDS011;8604;48.148;-1.786;2023-08-06T13:35:14;3.80;;;1.40;;
16975;SDS011;8604;48.148;-1.786;2023-08-06T13:37:42;5.57;;;1.50;;
16975;SDS011;8604;48.148;-1.786;2023-08-06T13:40:10;4.07;;;1.40;;
16975;SDS011;8604;48.148;-1.786;2023-08-06T13:42:39;3.53;;;1.10;;
16975;SDS011;8604;48.148;-1.786;2023-08-06T13:45:09;2.33;;;1.20;;
16975;SDS011;8604;48.148;-1.786;2023-08-06T13:47:37;4.17;;;1.20;;
16975;SDS011;8604;48.148;-1.786;2023-08-06T13:50:06;4.07;;;1.30;;
16975;SDS011;8604;48.148;-1.786;2023-08-06T13:52:35;5.10;;;1.63;;
16975;SDS011;8604;48.148;-1.786;2023-08-06T13:55:04;3.90;;;1.50;;
16975;SDS011;8604;48.148;-1.786;2023-08-06T13:57:33;4.60;;;1.30;;
16975;SDS011;8604;48.148;-1.786;2023-08-06T14:00:02;4.70;;;1.57;;
16975;SDS011;8604;48.148;-1.786;2023-08-06T14:02:39;4.53;;;1.47;;
16975;SDS011;8604;48.148;-1.786;2023-08-06T14:05:07;5.50;;;1.40;;
16975;SDS011;8604;48.148;-1.786;2023-08-06T14:07:36;4.33;;;1.40;;
16975;SDS011;8604;48.148;-1.786;2023-08-06T14:10:05;5.77;;;1.57;;
16975;SDS011;8604;48.148;-1.786;2023-08-06T14:12:35;7.03;;;1.60;;
16975;SDS011;8604;48.148;-1.786;2023-08-06T14:15:04;5.00;;;1.40;;
16975;SDS011;8604;48.148;-1.786;2023-08-06T14:17:33;6.77;;;1.53;;
16975;SDS011;8604;48.148;-1.786;2023-08-06T14:20:03;4.83;;;1.40;;
16975;SDS011;8604;48.148;-1.786;2023-08-06T14:22:34;5.73;;;1.53;;
16975;SDS011;8604;48.148;-1.786;2023-08-06T14:25:02;4.20;;;1.60;;
16975;SDS011;8604;48.148;-1.786;2023-08-06T14:27:31;6.90;;;1.50;;
16975;SDS011;8604;48.148;-1.786;2023-08-06T14:30:00;3.07;;;1.13;;
16975;SDS011;8604;48.148;-1.786;2023-08-06T14:32:29;5.27;;;1.40;;
16975;SDS011;8604;48.148;-1.786;2023-08-06T14:34:58;4.30;;;1.60;;
16975;SDS011;8604;48.148;-1.786;2023-08-06T14:37:27;5.23;;;1.47;;
16975;SDS011;8604;48.148;-1.786;2023-08-06T14:39:56;4.27;;;1.50;;
16975;SDS011;8604;48.148;-1.786;2023-08-06T14:42:24;5.97;;;1.50;;
16975;SDS011;8604;48.148;-1.786;2023-08-06T14:44:52;4.63;;;1.50;;
16975;SDS011;8604;48.148;-1.786;2023-08-06T14:47:21;4.97;;;1.33;;
16975;SDS011;8604;48.148;-1.786;2023-08-06T14:49:49;4.30;;;1.40;;
16975;SDS011;8604;48.148;-1.786;2023-08-06T14:52:17;4.13;;;1.40;;
16975;SDS011;8604;48.148;-1.786;2023-08-06T14:54:47;6.57;;;1.50;;
16975;SDS011;8604;48.148;-1.786;2023-08-06T14:57:18;5.07;;;1.40;;
16975;SDS011;8604;48.148;-1.786;2023-08-06T14:59:48;4.97;;;1.63;;
16975;SDS011;8604;48.148;-1.786;2023-08-06T15:02:16;5.00;;;1.33;;
16975;SDS011;8604;48.148;-1.786;2023-08-06T15:04:44;6.00;;;1.60;;
16975;SDS011;8604;48.148;-1.786;2023-08-06T15:07:13;4.57;;;1.50;;
16975;SDS011;8604;48.148;-1.786;2023-08-06T15:09:42;5.53;;;1.50;;
16975;SDS011;8604;48.148;-1.786;2023-08-06T15:12:33;6.17;;;1.63;;
16975;SDS011;8604;48.148;-1.786;2023-08-06T15:15:02;5.07;;;1.50;;
16975;SDS011;8604;48.148;-1.786;2023-08-06T15:17:31;5.13;;;1.40;;